createdAt,value
2022-07-28T00:00:23.914Z,1.50
2022-07-28T00:05:42.068Z,1.30
2022-07-28T00:10:45.488Z,1.60
2022-07-28T00:15:48.917Z,2.00
2022-07-28T00:20:52.205Z,1.70
2022-07-28T00:25:55.722Z,1.50
2022-07-28T00:30:59.200Z,1.50
2022-07-28T00:36:11.895Z,1.60
2022-07-28T00:41:17.020Z,2.40
2022-07-28T00:46:22.317Z,2.40
2022-07-28T00:51:28.361Z,2.20
2022-07-28T00:56:32.488Z,2.30
2022-07-28T01:07:24.571Z,2.30
2022-07-28T01:12:39.554Z,3.10
2022-07-28T01:17:52.493Z,4.40
2022-07-28T01:23:14.850Z,2.60
2022-07-28T01:28:59.547Z,2.10
2022-07-28T01:39:12.450Z,1.50
2022-07-28T01:44:22.261Z,1.80
2022-07-28T01:49:31.054Z,1.60
2022-07-28T01:54:38.098Z,1.30
2022-07-28T01:59:43.083Z,1.70
2022-07-28T02:04:48.643Z,1.90
2022-07-28T02:09:54.029Z,1.60
2022-07-28T02:15:00.095Z,1.80
2022-07-28T02:20:06.018Z,1.60
2022-07-28T02:25:10.356Z,1.80
2022-07-28T02:30:42.294Z,3.60
2022-07-28T02:35:50.752Z,2.60
2022-07-28T02:40:57.963Z,3.30
2022-07-28T02:46:06.078Z,2.50
2022-07-28T02:51:14.423Z,2.40
2022-07-28T02:56:18.668Z,2.30
2022-07-28T03:01:23.319Z,2.50
2022-07-28T03:06:28.879Z,3.60
2022-07-28T03:11:32.578Z,2.30
2022-07-28T03:16:35.958Z,2.60
2022-07-28T03:21:41.763Z,4.20
2022-07-28T03:26:53.881Z,29.00
2022-07-28T03:31:59.863Z,19.50
2022-07-28T03:37:12.376Z,11.10
2022-07-28T03:42:18.791Z,6.40
2022-07-28T03:47:24.119Z,8.20
2022-07-28T03:52:27.530Z,9.10
2022-07-28T03:57:30.945Z,3.70
2022-07-28T04:02:35.100Z,2.30
2022-07-28T04:07:38.693Z,2.50
2022-07-28T04:12:46.304Z,2.20
2022-07-28T04:17:50.426Z,2.10
2022-07-28T04:22:54.819Z,2.10
2022-07-28T04:27:58.184Z,2.60
2022-07-28T04:33:01.594Z,2.60
2022-07-28T04:38:05.030Z,2.40
2022-07-28T04:43:10.589Z,2.60
2022-07-28T04:48:14.701Z,2.30
2022-07-28T04:53:20.887Z,1.90
2022-07-28T04:58:25.214Z,2.70
2022-07-28T05:03:32.742Z,10.60
2022-07-28T05:08:39.309Z,9.90
2022-07-28T05:13:42.574Z,5.80
2022-07-28T05:18:45.830Z,8.00
2022-07-28T05:23:49.245Z,5.70
2022-07-28T05:28:52.661Z,9.10
2022-07-28T05:33:56.176Z,6.60
2022-07-28T05:39:00.302Z,6.40
2022-07-28T05:44:03.717Z,8.70
2022-07-28T05:49:07.158Z,6.00
2022-07-28T05:54:10.706Z,4.20
2022-07-28T05:59:15.287Z,2.40
2022-07-28T06:04:28.167Z,2.20
2022-07-28T06:09:32.250Z,1.70
2022-07-28T06:14:35.663Z,2.20
2022-07-28T06:19:39.074Z,1.70
2022-07-28T06:24:42.694Z,2.10
2022-07-28T06:29:45.900Z,2.80
2022-07-28T06:34:49.212Z,2.30
2022-07-28T06:39:52.626Z,5.60
2022-07-28T06:44:59.259Z,5.40
2022-07-28T06:50:03.975Z,3.20
2022-07-28T06:55:07.882Z,3.10
2022-07-28T07:00:14.534Z,4.00
2022-07-28T07:05:17.883Z,2.90
2022-07-28T07:10:21.500Z,2.20
2022-07-28T07:20:29.044Z,2.60
2022-07-28T07:25:32.457Z,2.30
2022-07-28T07:30:35.775Z,2.00
2022-07-28T07:35:39.181Z,2.80
2022-07-28T07:45:46.312Z,1.90
2022-07-28T07:55:58.156Z,2.40
2022-07-28T08:02:39.671Z,2.10
2022-07-28T08:07:43.495Z,2.80
2022-07-28T08:12:46.906Z,2.50
2022-07-28T08:17:50.320Z,1.80
2022-07-28T08:22:55.939Z,1.50
2022-07-28T08:27:59.706Z,2.40
2022-07-28T08:33:03.325Z,1.70
2022-07-28T08:43:23.875Z,2.10
2022-07-28T08:48:37.844Z,1.90
2022-07-28T08:53:43.148Z,1.90
2022-07-28T08:58:46.411Z,1.40
2022-07-28T09:08:53.506Z,1.80
2022-07-28T09:13:56.947Z,1.90
2022-07-28T09:19:00.358Z,1.80
2022-07-28T09:24:03.829Z,1.90
2022-07-28T09:29:08.683Z,1.40
2022-07-28T09:34:12.359Z,1.90
2022-07-28T09:39:32.956Z,1.60
2022-07-28T09:44:36.369Z,1.40
2022-07-28T09:49:43.072Z,1.20
2022-07-28T09:55:00.910Z,1.40
2022-07-28T10:20:37.341Z,1.70
2022-07-28T10:25:43.574Z,0.90
2022-07-28T10:30:50.239Z,0.90
2022-07-28T10:35:55.649Z,1.50
2022-07-28T10:41:03.349Z,1.40
2022-07-28T10:46:08.857Z,1.00
2022-07-28T10:51:14.895Z,1.30
2022-07-28T10:56:23.440Z,1.60
2022-07-28T11:01:53.094Z,1.20
2022-07-28T11:07:13.380Z,1.50
2022-07-28T11:12:17.109Z,1.30
2022-07-28T11:17:24.508Z,1.20
2022-07-28T11:22:37.032Z,1.30
2022-07-28T11:32:55.076Z,1.20
2022-07-28T11:38:01.546Z,1.10
2022-07-28T11:43:35.525Z,1.20
2022-07-28T11:48:45.203Z,1.30
2022-07-28T11:53:53.627Z,1.20
2022-07-28T11:59:02.520Z,1.80
2022-07-28T12:04:15.065Z,1.40
2022-07-28T12:09:23.552Z,1.00
2022-07-28T12:14:30.679Z,1.00
2022-07-28T12:19:34.036Z,1.80
2022-07-28T12:24:45.110Z,1.20
2022-07-28T12:30:05.325Z,1.00
2022-07-28T12:35:09.727Z,1.70
2022-07-28T12:40:14.479Z,1.10
2022-07-28T12:45:17.729Z,0.90
2022-07-28T12:50:21.517Z,1.10
2022-07-28T12:55:32.335Z,1.00
2022-07-28T13:00:36.707Z,1.20
2022-07-28T13:06:00.464Z,1.20
2022-07-28T13:11:03.772Z,1.10
2022-07-28T13:21:58.496Z,5.70
2022-07-28T13:27:04.574Z,3.20
2022-07-28T13:32:08.430Z,1.50
2022-07-28T13:37:13.120Z,1.60
2022-07-28T13:42:16.482Z,1.60
2022-07-28T13:47:19.787Z,1.10
2022-07-28T13:52:33.159Z,2.10
2022-07-28T13:57:38.647Z,2.00
2022-07-28T14:02:49.062Z,1.60
2022-07-28T14:07:52.486Z,0.70
2022-07-28T14:12:55.797Z,1.10
2022-07-28T14:17:59.059Z,1.30
2022-07-28T14:23:02.828Z,0.90
2022-07-28T14:28:06.138Z,0.70
2022-07-28T14:33:09.452Z,1.50
2022-07-28T14:38:51.214Z,1.00
2022-07-28T14:43:36.652Z,1.20
2022-07-28T14:48:41.709Z,1.30
2022-07-28T14:53:50.049Z,1.70
2022-07-28T14:58:55.494Z,2.40
2022-07-28T15:03:58.807Z,2.80
2022-07-28T15:09:02.630Z,3.60
2022-07-28T15:14:05.939Z,4.20
2022-07-28T15:19:09.766Z,3.60
2022-07-28T15:24:14.368Z,2.70
2022-07-28T15:29:19.762Z,1.80
2022-07-28T15:34:25.125Z,1.50
2022-07-28T15:39:30.884Z,2.00
2022-07-28T15:44:35.227Z,1.70
2022-07-28T15:49:40.177Z,1.60
2022-07-28T15:54:43.697Z,1.40
2022-07-28T15:59:51.414Z,1.40
2022-07-28T16:04:54.719Z,1.30
2022-07-28T16:09:58.370Z,1.10
2022-07-28T16:15:02.262Z,1.40
2022-07-28T16:20:10.352Z,1.00
2022-07-28T16:25:17.994Z,1.30
2022-07-28T16:30:21.717Z,0.80
2022-07-28T16:35:25.024Z,0.80
2022-07-28T16:40:30.693Z,0.70
2022-07-28T16:45:35.850Z,0.70
2022-07-28T16:50:39.263Z,0.80
2022-07-28T16:55:42.979Z,1.00
2022-07-28T17:00:46.395Z,1.10
2022-07-28T17:05:49.805Z,1.00
2022-07-28T17:10:53.066Z,0.70
2022-07-28T17:15:56.788Z,0.70
2022-07-28T17:21:00.261Z,0.60
2022-07-28T17:31:31.552Z,0.80
2022-07-28T17:36:39.059Z,0.90
2022-07-28T17:41:45.852Z,1.00
2022-07-28T17:46:50.091Z,2.00
2022-07-28T17:51:53.805Z,1.10
2022-07-28T17:56:57.741Z,1.10
2022-07-28T18:02:01.116Z,1.60
2022-07-28T18:07:05.585Z,3.00
2022-07-28T18:12:09.608Z,2.10
2022-07-28T18:17:12.870Z,1.80
2022-07-28T18:22:16.231Z,1.40
2022-07-28T18:27:20.156Z,0.80
2022-07-28T18:32:23.501Z,1.50
2022-07-28T18:37:26.680Z,1.20
2022-07-28T18:42:34.289Z,1.40
2022-07-28T18:47:46.592Z,1.50
2022-07-28T18:52:51.558Z,1.70
2022-07-28T18:57:54.972Z,1.80
2022-07-28T19:08:01.799Z,1.20
2022-07-28T19:13:05.620Z,1.00
2022-07-28T19:18:15.588Z,1.30
2022-07-28T19:23:19.923Z,1.30
2022-07-28T19:28:24.005Z,1.40
2022-07-28T19:33:28.388Z,1.40
2022-07-28T19:38:31.800Z,1.40
2022-07-28T19:43:35.622Z,1.30
2022-07-28T19:48:38.967Z,1.20
2022-07-28T19:53:42.769Z,2.50
2022-07-28T19:58:50.582Z,1.60
2022-07-28T20:04:03.042Z,1.60
2022-07-28T20:09:08.463Z,1.80
2022-07-28T20:14:11.818Z,1.70
2022-07-28T20:19:15.345Z,1.30
2022-07-28T20:24:20.131Z,2.10
2022-07-28T20:29:23.297Z,2.30
2022-07-28T20:34:26.650Z,1.80
2022-07-28T20:39:44.369Z,1.40
2022-07-28T20:44:49.249Z,0.90
2022-07-28T20:49:52.761Z,1.20
2022-07-28T20:54:55.973Z,1.20
2022-07-28T20:59:59.178Z,1.20
2022-07-28T21:05:02.489Z,1.90
2022-07-28T21:10:07.529Z,1.60
2022-07-28T21:15:11.361Z,2.70
2022-07-28T21:20:14.674Z,2.30
2022-07-28T21:25:18.291Z,1.80
2022-07-28T21:30:28.220Z,2.10
2022-07-28T21:35:31.774Z,1.80
2022-07-28T21:40:35.090Z,1.30
2022-07-28T21:45:38.458Z,1.30
2022-07-28T21:50:41.707Z,1.50
2022-07-28T21:55:46.657Z,1.80
2022-07-28T22:00:49.981Z,1.20
2022-07-28T22:05:53.481Z,1.20
2022-07-28T22:10:57.100Z,1.30
2022-07-28T22:16:00.443Z,1.10
2022-07-28T22:21:04.029Z,1.20
2022-07-28T22:26:07.240Z,1.20
2022-07-28T22:31:10.655Z,1.00
2022-07-28T22:36:14.473Z,1.60
2022-07-28T22:41:17.683Z,1.90
2022-07-28T22:46:21.014Z,0.90
2022-07-28T22:51:24.304Z,1.50
2022-07-28T22:56:46.152Z,1.30
2022-07-28T23:01:49.255Z,1.80
2022-07-28T23:06:52.569Z,1.30
2022-07-28T23:11:56.351Z,1.70
2022-07-28T23:17:00.113Z,2.80
2022-07-28T23:22:03.420Z,2.30
2022-07-28T23:27:06.736Z,2.20
2022-07-28T23:32:13.818Z,2.20
2022-07-28T23:37:20.115Z,2.10
2022-07-28T23:42:23.422Z,2.20
2022-07-28T23:47:26.632Z,1.90
2022-07-28T23:52:30.047Z,2.20
2022-07-28T23:57:33.561Z,2.40
